CheckWX is a tool to help pilots better visualize weather data.  It is not intended as a substitute for an official pre-flight weather briefing.

01:34:12 UTC

KMSP METAR
Minneapolis-St Paul International / Wold-Chamberlain Airport
Minneapolis, Minnesota, USA
Current

41 mins ago

KMSP 120053Z 33012G21KT 10SM FEW045 M12/M20 A3058 RMK AO2 PK WND 36027/0011 SLP376 T11171200 $
Observed
Nov-12 @ 00:53 UTC
Wind
  • 330° at 12 KTS
  • Gusting to 21 KTS
Visibility
10 SM
Flight Rules
VFR
Cloud Levels
  • Few at 4,500' AGL
Temperature
-12°C / 10°F
Dewpoint
-20°C / -4°F
Humidity
52%
Altimeter
30.58" Hg
Pressure
1035.52 hPa
Previous

2 hours ago

KMSP 112353Z 33016G25KT 10SM FEW041 M11/M21 A3057 RMK AO2 SLP369 T11111206 11078 21111 53013 $
Observed
Nov-11 @ 23:53 UTC
Wind
  • 330° at 16 KTS
  • Gusting to 25 KTS
Visibility
10 SM
Flight Rules
VFR
Cloud Levels
  • Few at 4,100' AGL
Temperature
-11°C / 12°F
Dewpoint
-21°C / -6°F
Humidity
44%
Altimeter
30.57" Hg
Pressure
1035.22 hPa
Previous

3 hours ago

KMSP 112253Z 34016G24KT 10SM SCT041 M11/M20 A3055 RMK AO2 SLP362 T11061200 $
Observed
Nov-11 @ 22:53 UTC
Wind
  • 340° at 16 KTS
  • Gusting to 24 KTS
Visibility
10 SM
Flight Rules
VFR
Cloud Levels
  • Scattered at 4,100' AGL
Temperature
-11°C / 12°F
Dewpoint
-20°C / -4°F
Humidity
48%
Altimeter
30.55" Hg
Pressure
1034.52 hPa